Du har inga inställningar för hoppväder.nu

Hoppväder.nu

Senast uppdaterat 12:49

UTC-tid

2021-12-07 kl. 11:49


Sol och måne

Solen går upp 9:25 och går ner 14:20 (beräknade cirkatider)
Nästa fullmåne blir om 12 dagar (2021-12-19)

METAR

ESNZ (Åre/Östersunds)
(29 minuter sedan)
ESNZ 071120Z AUTO 11013KT 9999 OVC041/// M12/M15 Q1011=















TAF

ESNZ (Åre/Östersunds)
(199 minuter sedan)
ESNZ 070830Z 0709/0711 13011KT 9999 BKN030=





Kodnycklar till TAF och METAR






LHP

(Östersund är område se41d i Delområde 4)







Spotting

Hur fungerar spotthjälpen och Vindkartan?

Markvind är ca 0 m/s.



Vindkartan

Senast uppdaterad 12:49




All data kommer från LFV.se